Truro, Massachusetts
Current Conditions -  °F | °C
As of 6:15 PM on Friday 26 Dec 2014 (Local Time) from KPVC Reporting Station
Clear Clear  
Wind Chill: 38°   Ceiling: Unl
Heat Index: 43°   Visibility: 10mi
Dew Point: 36°   Wind: 8mph
Humidity: 76%   Direction: 250°WSW
Pressure: 30.15"   Gusts: NA
Location:  42°N, 70.07°W
Report Text: KPVC 262315Z 25007KT 10SM CLR 06/02 A3015 RMK AO1
Loading
Personal Weather Stations






























Interactive Weather Map New forecast layout! Learn more

10-Day Weather Forecast

Advertisements
Track Severe Weather on mobile